Time;durP1;ratioP1;P1;durP2;ratioP2;P2;SDS_P1;SDS_P2;PMS_P1;PMS_P2;Temp;Humidity;BMP_temperature;BMP_pressure;BME280_temperature;BME280_humidity;BME280_pressure;Samples;Min_cycle;Max_cycle;Signal;HPM_P1;HPM_P2
2023/12/30 00:00:16;;;;;;;1.97;1.77;;;;;;;;;;5012961;28;20182;-74
2023/12/30 00:02:41;;;;;;;2.10;1.63;;;;;;;;;;5026332;28;20213;-74
2023/12/30 00:05:07;;;;;;;2.57;2.07;;;;;;;;;;5015844;28;20196;-74
2023/12/30 00:07:32;;;;;;;1.53;1.43;;;;;;;;;;5013097;28;20184;-72
2023/12/30 00:09:57;;;;;;;2.73;1.57;;;;;;;;;;5014730;28;20181;-74
2023/12/30 00:12:22;;;;;;;2.20;1.73;;;;;;;;;;5012226;28;20194;-72
2023/12/30 00:14:48;;;;;;;2.07;1.33;;;;;;;;;;5015291;28;20168;-72
2023/12/30 00:17:13;;;;;;;1.77;1.63;;;;;;;;;;5020506;28;20179;-74
2023/12/30 00:19:42;;;;;;;2.80;1.50;;;;;;;;;;5012659;28;20174;-73
2023/12/30 00:22:07;;;;;;;1.50;1.40;;;;;;;;;;5017077;28;20185;-72
2023/12/30 00:24:34;;;;;;;2.17;1.50;;;;;;;;;;5012882;28;20186;-72
2023/12/30 00:27:00;;;;;;;1.83;1.70;;;;;;;;;;5012726;28;20185;-74
2023/12/30 00:29:25;;;;;;;1.53;1.37;;;;;;;;;;5009672;28;20175;-74
2023/12/30 00:31:50;;;;;;;1.63;1.53;;;;;;;;;;5011565;28;20261;-75
2023/12/30 00:34:16;;;;;;;1.63;1.40;;;;;;;;;;5009618;28;20448;-72
2023/12/30 00:36:42;;;;;;;2.13;1.30;;;;;;;;;;5012551;28;20202;-72
2023/12/30 00:39:08;;;;;;;1.47;1.37;;;;;;;;;;5009665;28;20178;-74
2023/12/30 00:41:33;;;;;;;1.60;1.37;;;;;;;;;;5010066;28;20188;-73
2023/12/30 00:43:58;;;;;;;1.47;1.37;;;;;;;;;;5007692;28;20335;-72
2023/12/30 00:46:23;;;;;;;1.73;1.60;;;;;;;;;;5032452;28;20174;-72
2023/12/30 00:48:49;;;;;;;1.60;1.50;;;;;;;;;;5010073;28;20167;-73
2023/12/30 00:51:14;;;;;;;2.73;1.43;;;;;;;;;;5016807;28;20291;-72
2023/12/30 00:53:40;;;;;;;1.47;1.37;;;;;;;;;;5035336;28;20167;-72
2023/12/30 00:56:05;;;;;;;1.73;1.50;;;;;;;;;;5016706;28;20645;-73
2023/12/30 00:58:30;;;;;;;1.50;1.37;;;;;;;;;;5017101;28;20175;-72
2023/12/30 01:00:56;;;;;;;2.53;1.10;;;;;;;;;;5011460;28;20210;-73
2023/12/30 01:03:21;;;;;;;3.60;1.40;;;;;;;;;;5038405;28;20235;-73
2023/12/30 01:05:46;;;;;;;3.90;1.40;;;;;;;;;;5010913;28;20170;-73
2023/12/30 01:08:12;;;;;;;1.60;1.40;;;;;;;;;;5016454;28;20484;-73
2023/12/30 01:10:37;;;;;;;2.40;1.40;;;;;;;;;;5028922;28;20310;-72
2023/12/30 01:13:03;;;;;;;1.90;1.50;;;;;;;;;;5016906;28;20273;-73
2023/12/30 01:15:28;;;;;;;2.57;1.50;;;;;;;;;;5018931;28;20190;-73
2023/12/30 01:17:53;;;;;;;1.73;1.23;;;;;;;;;;5012359;28;20225;-73
2023/12/30 01:20:19;;;;;;;1.87;1.20;;;;;;;;;;5018374;28;20176;-72
2023/12/30 01:22:44;;;;;;;2.87;1.47;;;;;;;;;;5013549;28;20306;-73
2023/12/30 01:25:09;;;;;;;1.47;1.27;;;;;;;;;;5015252;28;20187;-73
2023/12/30 01:27:34;;;;;;;1.20;1.10;;;;;;;;;;5010728;28;20185;-73
2023/12/30 01:29:59;;;;;;;5.00;1.40;;;;;;;;;;5013203;28;20206;-73
2023/12/30 01:32:25;;;;;;;1.50;1.40;;;;;;;;;;5012084;28;20215;-73
2023/12/30 01:34:50;;;;;;;1.63;1.37;;;;;;;;;;5031810;28;20219;-73
2023/12/30 01:37:15;;;;;;;2.73;1.37;;;;;;;;;;5017921;28;20177;-72
2023/12/30 01:39:40;;;;;;;1.30;1.20;;;;;;;;;;5030078;28;20193;-72
2023/12/30 01:42:05;;;;;;;2.33;1.23;;;;;;;;;;5008478;28;20186;-72
2023/12/30 01:44:31;;;;;;;3.00;1.57;;;;;;;;;;5029947;28;20228;-73
2023/12/30 01:46:56;;;;;;;1.67;1.27;;;;;;;;;;5005830;28;20185;-73
2023/12/30 01:49:22;;;;;;;1.20;1.10;;;;;;;;;;5021022;28;20191;-72
2023/12/30 01:51:47;;;;;;;1.50;1.40;;;;;;;;;;5025515;28;20217;-73
2023/12/30 01:54:14;;;;;;;1.13;1.03;;;;;;;;;;5035094;28;20189;-72
2023/12/30 01:56:39;;;;;;;1.60;1.03;;;;;;;;;;5018924;28;20176;-72
2023/12/30 01:59:04;;;;;;;1.17;1.07;;;;;;;;;;5032583;28;20243;-73
2023/12/30 02:01:30;;;;;;;1.60;1.30;;;;;;;;;;5012643;28;20183;-73
2023/12/30 02:03:55;;;;;;;1.60;1.30;;;;;;;;;;5021417;28;20276;-73
2023/12/30 02:06:20;;;;;;;1.73;1.17;;;;;;;;;;5009494;28;20404;-72
2023/12/30 02:08:46;;;;;;;1.57;1.00;;;;;;;;;;5012485;28;20196;-72
2023/12/30 02:11:12;;;;;;;3.17;1.30;;;;;;;;;;5008599;28;20247;-73
2023/12/30 02:13:40;;;;;;;1.23;1.13;;;;;;;;;;5013837;28;20390;-73
2023/12/30 02:16:06;;;;;;;1.03;1.03;;;;;;;;;;5015976;28;20204;-72
2023/12/30 02:18:31;;;;;;;1.33;1.13;;;;;;;;;;5030347;28;20174;-73
2023/12/30 02:20:56;;;;;;;1.00;1.00;;;;;;;;;;5014549;28;20200;-72
2023/12/30 02:23:21;;;;;;;2.77;1.13;;;;;;;;;;5012350;28;20248;-73
2023/12/30 02:25:47;;;;;;;1.53;1.00;;;;;;;;;;5016625;28;20182;-72
2023/12/30 02:28:12;;;;;;;1.33;1.17;;;;;;;;;;5013166;28;20450;-73
2023/12/30 02:30:37;;;;;;;1.23;1.07;;;;;;;;;;5015213;28;20283;-73
2023/12/30 02:33:03;;;;;;;1.00;0.90;;;;;;;;;;4985343;28;20182;-73
2023/12/30 02:35:28;;;;;;;1.17;1.07;;;;;;;;;;5000721;28;20266;-72
2023/12/30 02:37:53;;;;;;;0.90;0.90;;;;;;;;;;4985381;28;20185;-72
2023/12/30 02:40:18;;;;;;;1.63;1.00;;;;;;;;;;4981183;28;20187;-73
2023/12/30 02:42:44;;;;;;;1.47;1.13;;;;;;;;;;4983676;28;20354;-73
2023/12/30 02:45:09;;;;;;;1.80;1.10;;;;;;;;;;4976697;28;20187;-73
2023/12/30 02:47:35;;;;;;;1.70;0.87;;;;;;;;;;4985950;28;20175;-72
2023/12/30 02:50:00;;;;;;;1.90;1.10;;;;;;;;;;4990532;28;20181;-73
2023/12/30 02:52:25;;;;;;;1.17;1.07;;;;;;;;;;4990338;28;20259;-73
2023/12/30 02:54:51;;;;;;;1.10;1.00;;;;;;;;;;4991793;28;20183;-73
2023/12/30 02:57:16;;;;;;;1.30;1.20;;;;;;;;;;5007321;28;20171;-73
2023/12/30 02:59:41;;;;;;;1.67;1.10;;;;;;;;;;4997868;28;20185;-73
2023/12/30 03:02:06;;;;;;;1.40;1.10;;;;;;;;;;5006264;28;20181;-73
2023/12/30 03:04:31;;;;;;;3.63;2.03;;;;;;;;;;5005220;28;20333;-73
2023/12/30 03:06:57;;;;;;;1.97;1.30;;;;;;;;;;5006402;28;20202;-73
2023/12/30 03:09:22;;;;;;;1.33;1.10;;;;;;;;;;4999898;28;20172;-73
2023/12/30 03:11:47;;;;;;;1.33;1.23;;;;;;;;;;4980445;28;20164;-73
2023/12/30 03:14:12;;;;;;;1.47;1.37;;;;;;;;;;5002011;28;20189;-73
2023/12/30 03:16:38;;;;;;;2.03;1.40;;;;;;;;;;4987100;28;20175;-73
2023/12/30 03:19:03;;;;;;;1.00;1.00;;;;;;;;;;4995918;28;20177;-72
2023/12/30 03:21:28;;;;;;;1.33;1.20;;;;;;;;;;5005147;28;20291;-72
2023/12/30 03:23:53;;;;;;;1.20;1.10;;;;;;;;;;4981998;28;20303;-73
2023/12/30 03:26:19;;;;;;;2.03;1.50;;;;;;;;;;4984473;28;20191;-73
2023/12/30 03:28:44;;;;;;;1.07;1.07;;;;;;;;;;4990112;28;20214;-73
2023/12/30 03:31:22;;;;;;;1.23;1.10;;;;;;;;;;4983347;28;20310;-73
2023/12/30 03:33:48;;;;;;;1.07;1.00;;;;;;;;;;4995166;28;20183;-73
2023/12/30 03:36:13;;;;;;;1.20;1.10;;;;;;;;;;5000801;28;20262;-73
2023/12/30 03:38:38;;;;;;;1.10;1.00;;;;;;;;;;4989232;28;20203;-73
2023/12/30 03:41:03;;;;;;;1.10;1.10;;;;;;;;;;4980359;28;20198;-73
2023/12/30 03:43:28;;;;;;;2.23;1.20;;;;;;;;;;4978133;28;20199;-73
2023/12/30 03:45:54;;;;;;;1.33;1.00;;;;;;;;;;4972643;28;20183;-73
2023/12/30 03:48:19;;;;;;;0.90;0.90;;;;;;;;;;4985596;28;20269;-73
2023/12/30 03:50:44;;;;;;;1.03;1.03;;;;;;;;;;4990549;28;20195;-72
2023/12/30 03:53:09;;;;;;;2.67;1.10;;;;;;;;;;5004136;28;20180;-73
2023/12/30 03:55:34;;;;;;;1.70;1.30;;;;;;;;;;5007016;28;20209;-73
2023/12/30 03:58:00;;;;;;;1.70;1.10;;;;;;;;;;4987454;28;20237;-73
2023/12/30 04:00:25;;;;;;;1.90;1.20;;;;;;;;;;4996379;28;20251;-73
2023/12/30 04:02:50;;;;;;;1.00;0.97;;;;;;;;;;4985278;28;20195;-72
2023/12/30 04:05:15;;;;;;;0.93;0.93;;;;;;;;;;4988809;28;20484;-73
2023/12/30 04:07:41;;;;;;;0.97;0.90;;;;;;;;;;5000822;28;20182;-73
2023/12/30 04:10:07;;;;;;;0.90;0.90;;;;;;;;;;4989220;28;20228;-73
2023/12/30 04:12:33;;;;;;;3.73;1.97;;;;;;;;;;5002872;28;20179;-73
2023/12/30 04:14:58;;;;;;;1.83;1.27;;;;;;;;;;4988022;28;20174;-73
2023/12/30 04:17:23;;;;;;;1.13;1.03;;;;;;;;;;4983354;28;20179;-74
2023/12/30 04:19:49;;;;;;;1.50;1.40;;;;;;;;;;5004257;28;20172;-72
2023/12/30 04:22:14;;;;;;;3.10;1.50;;;;;;;;;;4981997;28;20177;-73
2023/12/30 04:24:39;;;;;;;1.50;1.20;;;;;;;;;;5004082;28;20183;-72
2023/12/30 04:27:04;;;;;;;1.80;1.37;;;;;;;;;;4981486;28;20187;-73
2023/12/30 04:29:30;;;;;;;2.03;1.37;;;;;;;;;;5003502;28;20234;-73
2023/12/30 04:31:55;;;;;;;2.60;1.30;;;;;;;;;;4979811;28;20226;-73
2023/12/30 04:34:20;;;;;;;3.07;1.43;;;;;;;;;;4986825;28;20186;-73
2023/12/30 04:36:45;;;;;;;2.13;1.43;;;;;;;;;;4995397;28;20206;-73
2023/12/30 04:39:10;;;;;;;1.70;1.20;;;;;;;;;;4981559;28;20189;-72
2023/12/30 04:41:36;;;;;;;1.40;1.20;;;;;;;;;;5001259;28;20190;-73
2023/12/30 04:44:01;;;;;;;4.90;1.73;;;;;;;;;;4997412;28;20215;-73
2023/12/30 04:46:26;;;;;;;3.10;1.20;;;;;;;;;;4999345;28;20171;-73
2023/12/30 04:48:54;;;;;;;1.30;1.20;;;;;;;;;;4989970;28;20171;-73
2023/12/30 04:51:19;;;;;;;4.37;1.67;;;;;;;;;;5005488;28;20176;-72
2023/12/30 04:53:44;;;;;;;4.03;2.37;;;;;;;;;;4989485;28;20182;-73
2023/12/30 04:56:16;;;;;;;3.37;1.37;;;;;;;;;;5002947;28;20188;-73
2023/12/30 04:58:41;;;;;;;1.20;1.10;;;;;;;;;;4982171;28;20172;-73
2023/12/30 05:01:08;;;;;;;3.87;1.87;;;;;;;;;;4981590;28;20182;-73
2023/12/30 05:03:33;;;;;;;3.07;1.40;;;;;;;;;;4988985;28;20255;-72
2023/12/30 05:05:58;;;;;;;2.53;1.43;;;;;;;;;;4985676;28;20222;-73
2023/12/30 05:08:24;;;;;;;2.20;1.20;;;;;;;;;;5004489;28;20180;-72
2023/12/30 05:10:49;;;;;;;2.67;1.53;;;;;;;;;;5001056;28;20172;-72
2023/12/30 05:13:14;;;;;;;2.50;1.60;;;;;;;;;;4980617;28;20187;-73
2023/12/30 05:15:39;;;;;;;2.30;1.70;;;;;;;;;;4981301;28;20176;-72
2023/12/30 05:18:05;;;;;;;3.77;1.50;;;;;;;;;;4982840;28;20179;-72
2023/12/30 05:20:30;;;;;;;3.83;2.20;;;;;;;;;;4998104;28;20176;-73
2023/12/30 05:22:58;;;;;;;4.60;3.67;;;;;;;;;;4979561;28;20200;-72
2023/12/30 05:25:23;;;;;;;2.80;1.70;;;;;;;;;;4980122;28;20190;-73
2023/12/30 05:27:48;;;;;;;1.63;1.10;;;;;;;;;;4983901;28;20254;-73
2023/12/30 05:30:14;;;;;;;2.67;1.40;;;;;;;;;;4979623;28;20228;-73
2023/12/30 05:32:39;;;;;;;2.07;1.57;;;;;;;;;;4983537;28;20223;-73
2023/12/30 05:35:04;;;;;;;4.70;1.40;;;;;;;;;;4997604;28;20169;-73
2023/12/30 05:37:30;;;;;;;5.20;1.60;;;;;;;;;;4983202;28;20181;-73
2023/12/30 05:39:55;;;;;;;1.40;1.30;;;;;;;;;;4996839;28;20180;-72
2023/12/30 05:42:21;;;;;;;1.77;1.40;;;;;;;;;;4984450;28;20176;-73
2023/12/30 05:44:47;;;;;;;7.53;2.97;;;;;;;;;;4975790;28;20231;-72
2023/12/30 05:47:12;;;;;;;6.57;3.13;;;;;;;;;;4977685;28;20192;-73
2023/12/30 05:49:39;;;;;;;2.77;2.13;;;;;;;;;;4985906;28;20211;-72
2023/12/30 05:52:05;;;;;;;10.27;4.50;;;;;;;;;;4988165;28;20210;-73
2023/12/30 05:54:30;;;;;;;3.27;1.97;;;;;;;;;;4985432;28;20183;-73
2023/12/30 05:56:55;;;;;;;2.50;1.80;;;;;;;;;;4988825;28;20186;-73
2023/12/30 05:59:20;;;;;;;5.47;2.07;;;;;;;;;;4981320;28;20270;-73
2023/12/30 06:01:46;;;;;;;3.20;1.40;;;;;;;;;;5008134;28;20178;-72
2023/12/30 06:04:14;;;;;;;1.27;1.17;;;;;;;;;;5005082;28;20227;-73
2023/12/30 06:06:40;;;;;;;1.50;1.00;;;;;;;;;;4990918;28;20226;-72
2023/12/30 06:09:05;;;;;;;1.43;1.20;;;;;;;;;;4986746;28;20180;-73
2023/12/30 06:11:31;;;;;;;3.80;1.40;;;;;;;;;;5007760;28;20239;-73
2023/12/30 06:13:57;;;;;;;1.30;1.20;;;;;;;;;;4981983;28;20329;-73
2023/12/30 06:16:22;;;;;;;1.20;1.10;;;;;;;;;;4989686;28;20175;-73
2023/12/30 06:18:47;;;;;;;1.50;1.40;;;;;;;;;;4986225;28;20206;-73
2023/12/30 06:21:12;;;;;;;1.00;0.80;;;;;;;;;;5005668;28;20187;-73
2023/12/30 06:23:38;;;;;;;5.33;3.80;;;;;;;;;;4986236;28;20207;-73
2023/12/30 06:26:03;;;;;;;3.20;2.90;;;;;;;;;;5005555;28;20178;-73
2023/12/30 06:28:28;;;;;;;1.47;1.20;;;;;;;;;;4983925;28;20215;-73
2023/12/30 06:30:54;;;;;;;2.33;2.13;;;;;;;;;;5002229;28;20221;-73
2023/12/30 06:33:20;;;;;;;1.43;1.33;;;;;;;;;;4984445;28;20188;-72
2023/12/30 06:35:45;;;;;;;1.33;1.23;;;;;;;;;;4986155;28;20183;-73
2023/12/30 06:38:10;;;;;;;1.60;1.50;;;;;;;;;;4983928;28;20188;-72
2023/12/30 06:40:36;;;;;;;2.20;1.17;;;;;;;;;;4999468;28;20185;-73
2023/12/30 06:43:02;;;;;;;1.60;1.50;;;;;;;;;;4985632;28;20244;-72
2023/12/30 06:45:27;;;;;;;1.37;1.27;;;;;;;;;;4990163;28;20262;-72
2023/12/30 06:47:52;;;;;;;1.40;1.30;;;;;;;;;;4991611;28;20186;-73
2023/12/30 06:50:20;;;;;;;0.70;0.70;;;;;;;;;;5007407;28;20184;-73
2023/12/30 06:52:45;;;;;;;1.50;1.40;;;;;;;;;;4991168;28;20178;-73
2023/12/30 06:55:12;;;;;;;0.80;0.80;;;;;;;;;;4991109;28;20182;-72
2023/12/30 06:57:37;;;;;;;0.80;0.80;;;;;;;;;;4989552;28;20179;-73
2023/12/30 07:00:03;;;;;;;0.77;0.77;;;;;;;;;;4980675;28;20186;-73
2023/12/30 07:02:28;;;;;;;1.67;1.57;;;;;;;;;;4987202;28;20172;-73
2023/12/30 07:04:54;;;;;;;15.23;9.93;;;;;;;;;;4988014;28;20212;-72
2023/12/30 07:07:19;;;;;;;3.67;2.30;;;;;;;;;;4986466;28;20179;-73
2023/12/30 07:09:44;;;;;;;4.20;3.20;;;;;;;;;;4973808;28;20238;-73
2023/12/30 07:12:12;;;;;;;5.17;3.17;;;;;;;;;;4997421;28;20200;-73
2023/12/30 07:14:38;;;;;;;7.23;4.60;;;;;;;;;;5001444;28;20178;-73
2023/12/30 07:17:03;;;;;;;7.07;5.83;;;;;;;;;;5007329;28;20184;-74
2023/12/30 07:19:29;;;;;;;3.73;3.33;;;;;;;;;;4985124;28;20183;-73
2023/12/30 07:21:54;;;;;;;3.47;2.93;;;;;;;;;;4984903;28;20270;-72
2023/12/30 07:24:19;;;;;;;2.77;2.43;;;;;;;;;;5005182;28;20230;-73
2023/12/30 07:26:44;;;;;;;2.73;2.53;;;;;;;;;;4987952;28;20170;-73
2023/12/30 07:29:11;;;;;;;1.37;1.27;;;;;;;;;;4977048;28;20175;-73
2023/12/30 07:31:36;;;;;;;2.73;2.47;;;;;;;;;;5007201;28;20211;-72
2023/12/30 07:34:01;;;;;;;1.07;0.90;;;;;;;;;;5018519;28;20191;-73
2023/12/30 07:36:27;;;;;;;1.67;1.43;;;;;;;;;;5011715;28;20818;-72
2023/12/30 07:38:52;;;;;;;2.50;2.30;;;;;;;;;;5002153;28;20206;-72
2023/12/30 07:41:17;;;;;;;1.50;1.40;;;;;;;;;;5003593;28;20272;-73
2023/12/30 07:43:43;;;;;;;4.53;4.23;;;;;;;;;;4998239;28;20198;-72
2023/12/30 07:46:08;;;;;;;1.57;1.27;;;;;;;;;;4985952;28;20186;-73
2023/12/30 07:48:33;;;;;;;1.10;1.00;;;;;;;;;;5003242;28;20173;-73
2023/12/30 07:50:59;;;;;;;2.23;1.87;;;;;;;;;;5004707;28;20187;-73
2023/12/30 07:53:25;;;;;;;1.00;1.00;;;;;;;;;;5018291;28;20182;-72
2023/12/30 07:55:50;;;;;;;1.00;1.00;;;;;;;;;;5003365;28;20206;-73
2023/12/30 07:58:15;;;;;;;1.07;0.87;;;;;;;;;;5002660;28;20183;-73
2023/12/30 08:00:40;;;;;;;0.53;0.53;;;;;;;;;;5010443;28;20220;-73
2023/12/30 08:03:05;;;;;;;2.73;2.53;;;;;;;;;;5021831;28;20191;-73
2023/12/30 08:05:31;;;;;;;1.23;1.13;;;;;;;;;;5001787;28;20178;-73
2023/12/30 08:07:56;;;;;;;1.40;1.30;;;;;;;;;;5002867;28;20178;-73
2023/12/30 08:10:21;;;;;;;1.10;1.10;;;;;;;;;;4993994;28;20571;-73
2023/12/30 08:12:46;;;;;;;1.70;1.60;;;;;;;;;;5017106;28;20178;-72
2023/12/30 08:15:12;;;;;;;1.10;1.10;;;;;;;;;;5016065;28;20183;-73
2023/12/30 08:17:37;;;;;;;2.70;1.57;;;;;;;;;;5014527;28;20183;-73
2023/12/30 08:20:03;;;;;;;1.10;1.00;;;;;;;;;;5014596;28;20172;-73
2023/12/30 08:22:28;;;;;;;0.90;0.90;;;;;;;;;;4993854;28;20243;-72
2023/12/30 08:24:54;;;;;;;0.87;0.87;;;;;;;;;;4999846;28;20214;-73
2023/12/30 08:27:19;;;;;;;1.20;1.10;;;;;;;;;;5009891;28;20182;-72
2023/12/30 08:29:44;;;;;;;0.90;0.90;;;;;;;;;;4994976;28;20218;-72
2023/12/30 08:32:09;;;;;;;0.80;0.80;;;;;;;;;;5009725;28;20318;-74
2023/12/30 08:34:34;;;;;;;1.33;0.80;;;;;;;;;;5010054;28;20240;-73
2023/12/30 08:37:05;;;;;;;1.93;1.50;;;;;;;;;;5034584;28;20261;-73
2023/12/30 08:39:31;;;;;;;1.87;1.40;;;;;;;;;;5021448;28;20181;-73
2023/12/30 08:41:56;;;;;;;1.50;1.40;;;;;;;;;;5025749;28;20242;-73
2023/12/30 08:44:21;;;;;;;1.37;1.20;;;;;;;;;;5019079;28;20232;-73
2023/12/30 08:46:46;;;;;;;2.03;1.50;;;;;;;;;;5016006;28;20202;-73
2023/12/30 08:49:12;;;;;;;1.40;1.30;;;;;;;;;;5028142;28;20182;-73
2023/12/30 08:51:37;;;;;;;1.23;1.10;;;;;;;;;;5038616;28;20185;-73
2023/12/30 08:54:02;;;;;;;1.60;1.30;;;;;;;;;;5026860;28;20190;-73
2023/12/30 08:56:34;;;;;;;2.20;1.10;;;;;;;;;;5035218;28;20187;-73
2023/12/30 08:59:00;;;;;;;3.50;1.03;;;;;;;;;;5031401;28;20174;-73
2023/12/30 09:01:25;;;;;;;2.50;1.00;;;;;;;;;;5016764;28;20184;-74
2023/12/30 09:03:50;;;;;;;2.50;0.93;;;;;;;;;;5029803;28;20209;-73
2023/12/30 09:06:15;;;;;;;1.97;1.20;;;;;;;;;;5019735;28;20174;-72
2023/12/30 09:08:41;;;;;;;1.10;0.93;;;;;;;;;;5028827;28;20182;-73
2023/12/30 09:11:16;;;;;;;1.80;1.03;;;;;;;;;;5010095;28;20172;-73
2023/12/30 09:13:41;;;;;;;3.10;1.40;;;;;;;;;;5021943;28;20235;-72
2023/12/30 09:16:06;;;;;;;3.13;1.53;;;;;;;;;;5013550;28;20281;-73
2023/12/30 09:18:32;;;;;;;1.90;1.13;;;;;;;;;;5016489;28;20186;-72
2023/12/30 09:20:57;;;;;;;1.90;1.53;;;;;;;;;;5011724;28;20230;-72
2023/12/30 09:23:22;;;;;;;5.43;2.20;;;;;;;;;;5015175;28;20217;-73
2023/12/30 09:25:47;;;;;;;2.77;1.33;;;;;;;;;;5017926;28;20186;-72
2023/12/30 09:28:12;;;;;;;3.07;1.53;;;;;;;;;;5019130;28;20265;-73
2023/12/30 09:30:38;;;;;;;3.07;1.30;;;;;;;;;;5030971;28;20225;-72
2023/12/30 09:33:03;;;;;;;3.20;1.20;;;;;;;;;;5019147;28;20178;-73
2023/12/30 09:35:28;;;;;;;3.57;1.63;;;;;;;;;;5006975;28;20196;-73
2023/12/30 09:37:54;;;;;;;2.37;1.40;;;;;;;;;;5001606;28;20184;-73
2023/12/30 09:40:19;;;;;;;3.07;1.30;;;;;;;;;;5014511;28;20252;-73
2023/12/30 09:42:47;;;;;;;2.10;1.53;;;;;;;;;;4999958;28;20385;-72
2023/12/30 09:45:12;;;;;;;2.33;1.27;;;;;;;;;;5014993;28;20171;-73
2023/12/30 09:47:38;;;;;;;1.80;1.23;;;;;;;;;;4999451;28;20180;-73
2023/12/30 09:50:04;;;;;;;1.77;1.23;;;;;;;;;;5002491;28;20180;-73
2023/12/30 09:52:29;;;;;;;1.40;1.30;;;;;;;;;;5012322;28;20273;-73
2023/12/30 09:54:54;;;;;;;1.67;1.10;;;;;;;;;;5012386;28;20233;-73
2023/12/30 09:57:19;;;;;;;2.40;1.33;;;;;;;;;;5020360;28;20182;-72
2023/12/30 10:00:08;;;;;;;2.57;1.67;;;;;;;;;;4995822;28;20194;-73
2023/12/30 10:02:34;;;;;;;3.63;1.23;;;;;;;;;;5017273;28;20185;-72
2023/12/30 10:04:59;;;;;;;3.83;1.60;;;;;;;;;;4995788;28;20244;-73
2023/12/30 10:07:24;;;;;;;3.13;1.63;;;;;;;;;;4999105;28;20217;-72
2023/12/30 10:09:51;;;;;;;2.13;1.33;;;;;;;;;;5011049;28;20175;-73
2023/12/30 10:12:17;;;;;;;1.27;1.13;;;;;;;;;;5014783;28;20258;-72
2023/12/30 10:14:42;;;;;;;1.77;1.13;;;;;;;;;;4994630;28;20264;-73
2023/12/30 10:17:07;;;;;;;3.57;1.20;;;;;;;;;;4999181;28;20182;-72
2023/12/30 10:19:32;;;;;;;4.07;1.50;;;;;;;;;;5008312;28;20245;-72
2023/12/30 10:21:58;;;;;;;1.10;1.00;;;;;;;;;;5010417;28;20194;-72
2023/12/30 10:24:23;;;;;;;1.20;1.10;;;;;;;;;;4992991;28;20191;-73
2023/12/30 10:26:49;;;;;;;2.43;1.70;;;;;;;;;;4993819;28;20178;-73
2023/12/30 10:29:14;;;;;;;3.43;1.70;;;;;;;;;;5014109;28;20182;-73
2023/12/30 10:31:39;;;;;;;3.60;1.87;;;;;;;;;;5018282;28;20262;-73
2023/12/30 10:34:05;;;;;;;3.57;1.90;;;;;;;;;;4990453;28;20186;-73
2023/12/30 10:36:30;;;;;;;1.87;1.23;;;;;;;;;;5000511;28;20506;-72
2023/12/30 10:38:58;;;;;;;1.90;1.00;;;;;;;;;;5018842;28;20178;-73
2023/12/30 10:41:23;;;;;;;2.07;1.33;;;;;;;;;;5009932;28;20183;-72
2023/12/30 10:43:48;;;;;;;3.27;1.80;;;;;;;;;;5017117;28;20188;-73
2023/12/30 10:46:16;;;;;;;1.77;1.30;;;;;;;;;;4992388;28;20175;-72
2023/12/30 10:48:46;;;;;;;1.80;0.93;;;;;;;;;;5012513;28;20180;-72
2023/12/30 10:51:14;;;;;;;2.07;1.80;;;;;;;;;;5018904;28;20198;-72
2023/12/30 10:53:40;;;;;;;2.47;1.60;;;;;;;;;;5008444;28;20203;-73
2023/12/30 10:56:06;;;;;;;4.00;1.40;;;;;;;;;;5017910;28;20195;-72
2023/12/30 10:58:35;;;;;;;1.77;1.20;;;;;;;;;;5004096;28;20277;-73
2023/12/30 11:01:01;;;;;;;1.40;1.20;;;;;;;;;;4999441;28;20186;-73
2023/12/30 11:03:27;;;;;;;1.17;1.07;;;;;;;;;;5004359;28;20209;-72
2023/12/30 11:06:11;;;;;;;1.40;1.20;;;;;;;;;;5016145;28;20211;-72
2023/12/30 11:08:38;;;;;;;1.50;1.10;;;;;;;;;;5018215;28;20551;-72
2023/12/30 11:11:04;;;;;;;7.03;2.80;;;;;;;;;;4993788;28;20197;-72
2023/12/30 11:13:33;;;;;;;3.43;2.70;;;;;;;;;;4999404;28;20183;-72
2023/12/30 11:16:11;;;;;;;0.93;0.93;;;;;;;;;;4992937;28;20221;-72
2023/12/30 11:18:59;;;;;;;3.57;1.93;;;;;;;;;;5014142;28;20176;-73
2023/12/30 11:21:39;;;;;;;1.40;0.87;;;;;;;;;;5001763;28;20189;-72
2023/12/30 11:24:06;;;;;;;3.80;1.50;;;;;;;;;;5012149;28;20206;-73
2023/12/30 11:26:31;;;;;;;1.50;1.17;;;;;;;;;;5011540;28;20174;-72
2023/12/30 11:29:03;;;;;;;1.73;1.20;;;;;;;;;;4995882;28;20238;-72
2023/12/30 11:31:30;;;;;;;2.40;1.53;;;;;;;;;;5018727;28;20233;-72
2023/12/30 11:34:15;;;;;;;1.93;1.30;;;;;;;;;;5014415;28;20182;-72
2023/12/30 11:36:40;;;;;;;1.17;1.03;;;;;;;;;;5006400;28;20287;-73
2023/12/30 11:39:07;;;;;;;1.83;1.50;;;;;;;;;;5001700;28;20185;-72
2023/12/30 11:41:33;;;;;;;1.90;1.10;;;;;;;;;;5011674;28;20201;-72
2023/12/30 11:44:00;;;;;;;2.07;1.87;;;;;;;;;;5017701;28;20202;-72
2023/12/30 11:46:26;;;;;;;3.80;2.00;;;;;;;;;;5000557;28;20194;-72
2023/12/30 11:48:51;;;;;;;3.03;2.40;;;;;;;;;;5016004;28;20185;-73
2023/12/30 11:51:20;;;;;;;2.27;1.50;;;;;;;;;;5019265;28;20172;-72
2023/12/30 11:53:46;;;;;;;2.47;1.20;;;;;;;;;;5006159;28;20218;-72
2023/12/30 11:56:11;;;;;;;3.30;1.80;;;;;;;;;;5001278;28;20175;-72
2023/12/30 11:58:36;;;;;;;7.17;4.00;;;;;;;;;;5000465;28;20211;-74
2023/12/30 12:01:01;;;;;;;4.63;2.40;;;;;;;;;;5013965;28;20172;-74
2023/12/30 12:03:27;;;;;;;2.93;1.90;;;;;;;;;;5001447;28;20232;-72
2023/12/30 12:05:52;;;;;;;6.60;4.33;;;;;;;;;;4996686;28;20263;-73
2023/12/30 12:08:17;;;;;;;12.93;6.63;;;;;;;;;;5002396;28;20206;-73
2023/12/30 12:10:42;;;;;;;5.83;3.30;;;;;;;;;;4989549;28;20326;-73
2023/12/30 12:13:09;;;;;;;9.63;4.93;;;;;;;;;;4997075;28;20175;-72
2023/12/30 12:15:35;;;;;;;15.67;7.80;;;;;;;;;;5011869;28;20176;-72
2023/12/30 12:18:00;;;;;;;18.13;11.30;;;;;;;;;;5020073;28;20175;-73
2023/12/30 12:20:26;;;;;;;1.40;0.90;;;;;;;;;;5009174;28;20179;-72
2023/12/30 12:22:54;;;;;;;2.20;1.63;;;;;;;;;;5017737;28;20460;-72
2023/12/30 12:25:20;;;;;;;2.10;1.43;;;;;;;;;;4992039;28;20168;-72
2023/12/30 12:27:47;;;;;;;2.37;1.27;;;;;;;;;;4994316;28;20250;-72
2023/12/30 12:30:12;;;;;;;1.20;1.10;;;;;;;;;;5022303;28;20215;-72
2023/12/30 12:32:41;;;;;;;5.47;1.60;;;;;;;;;;5017392;28;20278;-72
2023/12/30 12:35:06;;;;;;;1.47;1.20;;;;;;;;;;5026112;28;20198;-72
2023/12/30 12:37:32;;;;;;;1.33;1.03;;;;;;;;;;5020132;28;20206;-73
2023/12/30 12:39:57;;;;;;;2.13;1.20;;;;;;;;;;5009134;28;20235;-72
2023/12/30 12:42:22;;;;;;;1.53;1.20;;;;;;;;;;5012982;28;20200;-72
2023/12/30 12:44:47;;;;;;;2.37;1.30;;;;;;;;;;5015207;28;20230;-72
2023/12/30 12:47:13;;;;;;;1.70;0.87;;;;;;;;;;5032978;28;20179;-72
2023/12/30 12:49:39;;;;;;;1.00;1.00;;;;;;;;;;5028299;28;20190;-72
2023/12/30 12:52:04;;;;;;;1.10;1.00;;;;;;;;;;5014689;28;20297;-72
2023/12/30 12:54:29;;;;;;;1.40;1.30;;;;;;;;;;5019164;28;20625;-72
2023/12/30 12:56:56;;;;;;;1.37;1.17;;;;;;;;;;5016262;28;20174;-72
2023/12/30 12:59:21;;;;;;;2.67;1.67;;;;;;;;;;5014504;28;20182;-73
2023/12/30 13:01:46;;;;;;;1.10;1.00;;;;;;;;;;5013107;28;20179;-72
2023/12/30 13:04:13;;;;;;;1.10;1.10;;;;;;;;;;5019371;28;20268;-72
2023/12/30 13:06:38;;;;;;;0.83;0.77;;;;;;;;;;5009685;28;20258;-72
2023/12/30 13:09:24;;;;;;;0.90;0.90;;;;;;;;;;5012577;28;20271;-72
2023/12/30 13:11:48;;;;;;;2.83;1.87;;;;;;;;;;5006555;28;20172;-73
2023/12/30 13:14:19;;;;;;;1.00;1.00;;;;;;;;;;5011697;28;20187;-73
2023/12/30 13:16:44;;;;;;;2.10;1.00;;;;;;;;;;5008561;28;20177;-72
2023/12/30 13:19:10;;;;;;;3.03;1.40;;;;;;;;;;5009680;28;20266;-72
2023/12/30 13:21:35;;;;;;;0.90;0.77;;;;;;;;;;5011951;28;20290;-72
2023/12/30 13:24:00;;;;;;;1.47;1.27;;;;;;;;;;5012257;28;20222;-72
2023/12/30 13:26:27;;;;;;;1.50;0.90;;;;;;;;;;5009940;28;20172;-72
2023/12/30 13:28:52;;;;;;;1.60;1.50;;;;;;;;;;5010751;28;20167;-72
2023/12/30 13:31:22;;;;;;;1.83;1.27;;;;;;;;;;5017444;28;20230;-72
2023/12/30 13:33:50;;;;;;;1.73;1.20;;;;;;;;;;5002461;28;20242;-72
2023/12/30 13:36:18;;;;;;;1.47;1.37;;;;;;;;;;5001680;28;20184;-72
2023/12/30 13:38:50;;;;;;;1.40;1.10;;;;;;;;;;5001362;28;20175;-73
2023/12/30 13:41:16;;;;;;;1.07;1.03;;;;;;;;;;5016702;28;20192;-72
2023/12/30 13:43:43;;;;;;;1.70;1.20;;;;;;;;;;5016428;28;20191;-72
2023/12/30 13:51:27;;;;;;;1.47;1.37;;;;;;;;;;5006736;28;20178;-72
2023/12/30 13:53:53;;;;;;;2.07;1.23;;;;;;;;;;5001997;28;20517;-72
2023/12/30 13:56:19;;;;;;;1.03;0.90;;;;;;;;;;5015133;28;20259;-72
2023/12/30 13:58:46;;;;;;;2.73;2.17;;;;;;;;;;5015709;28;20242;-73
2023/12/30 14:01:12;;;;;;;1.30;1.20;;;;;;;;;;4994970;28;20180;-72
2023/12/30 14:03:38;;;;;;;1.30;1.20;;;;;;;;;;4998071;28;20195;-72
2023/12/30 14:06:05;;;;;;;0.70;0.70;;;;;;;;;;4994364;28;20515;-72
2023/12/30 14:08:42;;;;;;;1.43;1.03;;;;;;;;;;5012981;28;20181;-72
2023/12/30 14:11:20;;;;;;;1.30;0.90;;;;;;;;;;4990485;28;20176;-72
2023/12/30 14:13:46;;;;;;;1.10;1.00;;;;;;;;;;4998834;28;20262;-72
2023/12/30 14:16:13;;;;;;;1.07;0.97;;;;;;;;;;4997684;28;20226;-72
2023/12/30 14:18:38;;;;;;;4.20;1.40;;;;;;;;;;5009027;28;20192;-73
2023/12/30 14:21:03;;;;;;;6.33;5.73;;;;;;;;;;4998050;28;20213;-73
2023/12/30 14:23:30;;;;;;;1.60;1.50;;;;;;;;;;5013042;28;20195;-72
2023/12/30 14:25:56;;;;;;;1.00;0.97;;;;;;;;;;5019438;28;20236;-72
2023/12/30 14:28:21;;;;;;;5.30;1.03;;;;;;;;;;5002267;28;20194;-72
2023/12/30 14:30:46;;;;;;;0.90;0.90;;;;;;;;;;5010166;28;20253;-73
2023/12/30 14:33:11;;;;;;;2.50;1.20;;;;;;;;;;5019719;28;20190;-72
2023/12/30 14:35:37;;;;;;;1.20;1.10;;;;;;;;;;5006190;28;20182;-72
2023/12/30 14:38:04;;;;;;;1.50;1.40;;;;;;;;;;5010345;28;20182;-73
2023/12/30 14:40:29;;;;;;;1.53;1.30;;;;;;;;;;5013474;28;20222;-72